createdAt,value
2019-05-11T00:01:21.681Z,48.90
2019-05-11T00:03:52.356Z,49.10
2019-05-11T00:06:23.213Z,49.20
2019-05-11T00:08:53.719Z,49.30
2019-05-11T00:11:24.357Z,49.50
2019-05-11T00:13:54.862Z,49.60
2019-05-11T00:16:25.397Z,49.70
2019-05-11T00:18:56.138Z,49.80
2019-05-11T00:21:26.519Z,49.80
2019-05-11T00:23:57.267Z,49.90
2019-05-11T00:26:27.687Z,50.00
2019-05-11T00:28:58.233Z,50.10
2019-05-11T00:31:28.675Z,50.20
2019-05-11T00:33:59.075Z,50.20
2019-05-11T00:36:29.975Z,50.20
2019-05-11T00:39:01.322Z,50.20
2019-05-11T00:41:32.197Z,50.20
2019-05-11T00:44:02.829Z,50.20
2019-05-11T00:46:33.432Z,50.30
2019-05-11T00:49:03.818Z,50.30
2019-05-11T00:51:34.466Z,50.40
2019-05-11T00:54:05.205Z,50.30
2019-05-11T00:56:35.906Z,50.30
2019-05-11T00:59:20.987Z,50.40
2019-05-11T01:01:38.664Z,50.40
2019-05-11T01:04:09.118Z,50.40
2019-05-11T01:06:39.872Z,50.30
2019-05-11T01:09:10.670Z,50.40
2019-05-11T01:11:41.048Z,50.40
2019-05-11T01:14:12.007Z,50.40
2019-05-11T01:16:42.986Z,50.40
2019-05-11T01:19:13.508Z,50.30
2019-05-11T01:21:43.918Z,50.30
2019-05-11T01:24:14.372Z,50.30
2019-05-11T01:26:44.757Z,50.10
2019-05-11T01:29:15.176Z,50.00
2019-05-11T01:31:45.606Z,50.00
2019-05-11T01:34:16.313Z,50.00
2019-05-11T01:36:46.840Z,50.00
2019-05-11T01:39:17.343Z,50.00
2019-05-11T01:41:48.136Z,50.00
2019-05-11T01:44:18.596Z,50.10
2019-05-11T01:46:49.056Z,50.40
2019-05-11T01:49:19.479Z,50.10
2019-05-11T01:51:50.237Z,50.10
2019-05-11T01:54:20.647Z,50.10
2019-05-11T01:56:51.160Z,50.10
2019-05-11T01:59:21.857Z,50.10
2019-05-11T02:01:54.340Z,50.30
2019-05-11T02:04:25.017Z,50.20
2019-05-11T02:06:55.592Z,50.20
2019-05-11T02:09:26.016Z,50.20
2019-05-11T02:11:58.383Z,50.20
2019-05-11T02:14:29.321Z,50.20
2019-05-11T02:16:59.785Z,50.20
2019-05-11T02:19:30.280Z,50.20
2019-05-11T02:22:01.220Z,50.10
2019-05-11T02:24:31.615Z,50.20
2019-05-11T02:27:02.027Z,50.10
2019-05-11T02:29:33.029Z,50.10
2019-05-11T02:32:03.815Z,50.20
2019-05-11T02:34:34.363Z,50.20
2019-05-11T02:37:05.123Z,50.20
2019-05-11T02:39:35.661Z,50.10
2019-05-11T02:42:06.103Z,50.10
2019-05-11T02:44:36.669Z,50.20
2019-05-11T02:47:07.256Z,50.10
2019-05-11T02:49:37.730Z,50.20
2019-05-11T02:52:08.287Z,50.10
2019-05-11T02:54:40.422Z,50.10
2019-05-11T02:57:10.848Z,50.10
2019-05-11T02:59:41.413Z,50.10
2019-05-11T03:02:12.150Z,50.10
2019-05-11T03:04:42.641Z,50.10
2019-05-11T03:07:13.528Z,50.10
2019-05-11T03:09:44.121Z,50.10
2019-05-11T03:12:14.565Z,50.10
2019-05-11T03:14:45.711Z,50.10
2019-05-11T03:17:17.472Z,50.10
2019-05-11T03:19:48.045Z,50.10
2019-05-11T03:22:18.685Z,50.00
2019-05-11T03:24:50.803Z,50.10
2019-05-11T03:27:21.218Z,50.00
2019-05-11T03:29:52.060Z,50.00
2019-05-11T03:32:22.541Z,49.50
2019-05-11T03:34:52.975Z,50.60
2019-05-11T03:37:23.471Z,50.00
2019-05-11T03:39:53.919Z,50.00
2019-05-11T03:42:24.306Z,50.00
2019-05-11T03:44:54.720Z,50.00
2019-05-11T03:47:25.716Z,50.00
2019-05-11T03:49:56.121Z,50.00
2019-05-11T03:52:26.539Z,50.00
2019-05-11T03:54:56.930Z,50.00
2019-05-11T03:57:27.664Z,50.00
2019-05-11T03:59:58.127Z,50.00
2019-05-11T04:02:28.990Z,49.90
2019-05-11T04:04:59.667Z,49.90
2019-05-11T04:07:30.287Z,50.00
2019-05-11T04:10:01.092Z,49.80
2019-05-11T04:12:35.264Z,49.80
2019-05-11T04:15:05.309Z,49.80
2019-05-11T04:17:36.042Z,49.80
2019-05-11T04:20:07.691Z,49.80
2019-05-11T04:22:38.622Z,49.80
2019-05-11T04:25:09.201Z,49.60
2019-05-11T04:27:39.861Z,49.60
2019-05-11T04:30:10.528Z,49.60
2019-05-11T04:32:40.924Z,49.60
2019-05-11T04:35:11.625Z,49.50
2019-05-11T04:37:42.049Z,49.60
2019-05-11T04:40:12.859Z,49.50
2019-05-11T04:42:54.540Z,49.60
2019-05-11T04:45:15.419Z,49.60
2019-05-11T04:47:45.925Z,49.50
2019-05-11T04:50:16.657Z,49.50
2019-05-11T04:52:47.407Z,49.50
2019-05-11T04:55:18.158Z,49.50
2019-05-11T04:57:48.886Z,49.20
2019-05-11T05:00:19.538Z,49.50
2019-05-11T05:02:50.054Z,49.40
2019-05-11T05:05:20.483Z,49.40
2019-05-11T05:07:50.913Z,49.30
2019-05-11T05:10:22.406Z,49.30
2019-05-11T05:12:53.426Z,49.40
2019-05-11T05:15:24.925Z,49.30
2019-05-11T05:17:55.684Z,49.30
2019-05-11T05:20:26.105Z,49.30
2019-05-11T05:22:56.891Z,49.20
2019-05-11T05:25:27.340Z,49.50
2019-05-11T05:27:58.262Z,49.20
2019-05-11T05:30:28.749Z,49.10
2019-05-11T05:32:59.378Z,49.20
2019-05-11T05:35:29.794Z,49.10
2019-05-11T05:38:00.273Z,49.10
2019-05-11T05:40:30.940Z,49.10
2019-05-11T05:43:01.400Z,49.10
2019-05-11T05:45:31.898Z,49.10
2019-05-11T05:48:02.306Z,49.10
2019-05-11T05:50:32.781Z,49.10
2019-05-11T05:53:03.775Z,49.10
2019-05-11T05:55:34.747Z,49.10
2019-05-11T05:58:05.687Z,49.00
2019-05-11T06:00:36.761Z,49.00
2019-05-11T06:03:07.580Z,49.00
2019-05-11T06:05:38.302Z,48.90
2019-05-11T06:08:08.733Z,48.90
2019-05-11T06:10:39.906Z,48.90
2019-05-11T06:13:10.317Z,48.90
2019-05-11T06:15:40.858Z,48.80
2019-05-11T06:18:11.252Z,48.90
2019-05-11T06:20:41.654Z,48.80
2019-05-11T06:23:12.098Z,48.70
2019-05-11T06:25:42.535Z,48.90
2019-05-11T06:28:13.238Z,48.80
2019-05-11T06:30:43.696Z,48.80
2019-05-11T06:33:14.373Z,48.70
2019-05-11T06:35:44.775Z,48.70
2019-05-11T06:38:15.339Z,48.70
2019-05-11T06:40:46.003Z,48.60
2019-05-11T06:43:16.581Z,48.70
2019-05-11T06:45:47.015Z,48.60
2019-05-11T06:48:17.422Z,48.60
2019-05-11T06:50:48.169Z,48.60
2019-05-11T06:53:19.068Z,48.50
2019-05-11T06:55:50.113Z,48.60
2019-05-11T06:58:20.537Z,48.50
2019-05-11T07:00:51.206Z,48.50
2019-05-11T07:03:21.759Z,48.50
2019-05-11T07:05:52.303Z,48.50
2019-05-11T07:08:22.763Z,48.50
2019-05-11T07:10:53.196Z,48.50
2019-05-11T07:13:23.580Z,48.50
2019-05-11T07:15:54.460Z,49.10
2019-05-11T07:18:24.922Z,48.40
2019-05-11T07:20:55.341Z,48.40
2019-05-11T07:23:26.205Z,48.50
2019-05-11T07:26:00.133Z,48.30
2019-05-11T07:28:29.486Z,48.40
2019-05-11T07:31:00.075Z,48.30
2019-05-11T07:33:30.745Z,48.40
2019-05-11T07:36:01.180Z,48.40
2019-05-11T07:38:31.599Z,48.30
2019-05-11T07:41:02.873Z,48.30
2019-05-11T07:43:33.310Z,48.30
2019-05-11T07:46:03.710Z,48.20
2019-05-11T07:48:34.790Z,48.20
2019-05-11T07:51:05.338Z,48.20
2019-05-11T07:53:38.124Z,48.20
2019-05-11T07:56:08.404Z,48.10
2019-05-11T07:58:39.076Z,48.20
2019-05-11T08:01:09.675Z,48.10
2019-05-11T08:03:40.447Z,48.10
2019-05-11T08:06:10.903Z,48.10
2019-05-11T08:08:41.276Z,48.10
2019-05-11T08:11:11.939Z,48.00
2019-05-11T08:13:42.385Z,48.00
2019-05-11T08:16:12.986Z,48.90
2019-05-11T08:18:43.376Z,49.80
2019-05-11T08:21:13.842Z,49.20
2019-05-11T08:23:44.660Z,49.30
2019-05-11T08:26:15.056Z,49.40
2019-05-11T08:28:45.591Z,49.30
2019-05-11T08:31:18.609Z,49.30
2019-05-11T08:33:48.385Z,49.10
2019-05-11T08:36:19.132Z,49.00
2019-05-11T08:38:49.887Z,49.00
2019-05-11T08:41:21.275Z,49.00
2019-05-11T08:43:51.665Z,49.10
2019-05-11T08:46:22.048Z,49.00
2019-05-11T08:48:52.767Z,49.10
2019-05-11T08:51:23.190Z,49.00
2019-05-11T08:53:53.645Z,48.90
2019-05-11T08:56:24.067Z,48.80
2019-05-11T08:58:55.294Z,48.80
2019-05-11T09:01:28.083Z,48.70
2019-05-11T09:03:58.469Z,48.70
2019-05-11T09:06:29.034Z,48.70
2019-05-11T09:08:59.596Z,48.70
2019-05-11T09:11:30.022Z,48.60
2019-05-11T09:14:00.709Z,48.70
2019-05-11T09:16:31.205Z,48.50
2019-05-11T09:19:01.666Z,48.50
2019-05-11T09:21:32.475Z,48.60
2019-05-11T09:24:03.172Z,48.50
2019-05-11T09:26:33.588Z,48.50
2019-05-11T09:29:03.994Z,48.40
2019-05-11T09:31:34.763Z,48.50
2019-05-11T09:34:05.295Z,48.40
2019-05-11T09:36:38.489Z,48.40
2019-05-11T09:39:09.101Z,48.40
2019-05-11T09:41:39.848Z,48.30
2019-05-11T09:44:10.275Z,48.30
2019-05-11T09:46:40.703Z,48.30
2019-05-11T09:49:11.127Z,48.30
2019-05-11T09:51:41.928Z,48.30
2019-05-11T09:54:31.854Z,48.20
2019-05-11T09:57:02.304Z,48.30
2019-05-11T09:59:32.909Z,48.10
2019-05-11T10:02:03.468Z,48.20
2019-05-11T10:04:34.428Z,48.20
2019-05-11T10:07:05.173Z,48.20
2019-05-11T10:09:38.202Z,48.10
2019-05-11T10:12:08.347Z,48.10
2019-05-11T10:14:38.751Z,48.20
2019-05-11T10:17:09.156Z,48.20
2019-05-11T10:19:39.870Z,48.10
2019-05-11T10:22:10.733Z,48.10
2019-05-11T10:24:41.500Z,48.30
2019-05-11T10:27:11.990Z,48.10
2019-05-11T10:29:42.496Z,48.20
2019-05-11T10:32:13.255Z,48.20
2019-05-11T10:34:43.996Z,48.10
2019-05-11T10:37:14.906Z,48.60
2019-05-11T10:39:45.742Z,48.20
2019-05-11T10:42:17.973Z,48.20
2019-05-11T10:44:48.655Z,48.20
2019-05-11T10:47:19.346Z,48.10
2019-05-11T10:49:49.870Z,48.10
2019-05-11T10:52:20.981Z,48.10
2019-05-11T10:54:53.059Z,48.10
2019-05-11T10:57:23.797Z,48.20
2019-05-11T10:59:54.194Z,48.10
2019-05-11T11:02:24.892Z,48.20
2019-05-11T11:04:55.815Z,48.10
2019-05-11T11:07:28.619Z,48.10
2019-05-11T11:09:58.336Z,48.10
2019-05-11T11:12:28.741Z,48.10
2019-05-11T11:14:59.302Z,48.10
2019-05-11T11:17:30.082Z,48.10
2019-05-11T11:20:00.459Z,48.10
2019-05-11T11:22:39.839Z,48.10
2019-05-11T11:25:02.779Z,48.10
2019-05-11T11:27:33.368Z,48.10
2019-05-11T11:30:04.376Z,48.20
2019-05-11T11:32:35.161Z,48.10
2019-05-11T11:35:08.210Z,48.10
2019-05-11T11:37:39.346Z,48.10
2019-05-11T11:40:10.664Z,48.00
2019-05-11T11:42:41.474Z,48.10
2019-05-11T11:45:12.714Z,48.00
2019-05-11T11:47:43.180Z,48.00
2019-05-11T11:50:13.688Z,48.10
2019-05-11T11:52:45.147Z,48.00
2019-05-11T11:55:18.380Z,48.00
2019-05-11T11:57:48.630Z,48.10
2019-05-11T12:00:20.279Z,48.10
2019-05-11T12:02:51.137Z,48.00
2019-05-11T12:05:21.555Z,48.00
2019-05-11T12:07:52.482Z,48.10
2019-05-11T12:10:23.518Z,48.00
2019-05-11T12:12:54.083Z,48.00
2019-05-11T12:15:24.692Z,48.10
2019-05-11T12:17:55.483Z,48.00
2019-05-11T12:20:28.471Z,48.00
2019-05-11T12:22:58.277Z,48.00
2019-05-11T12:25:29.316Z,48.00
2019-05-11T12:28:00.164Z,48.00
2019-05-11T12:30:30.703Z,48.00
2019-05-11T12:33:01.145Z,47.90
2019-05-11T12:35:31.532Z,48.00
2019-05-11T12:38:02.303Z,47.90
2019-05-11T12:40:32.804Z,48.00
2019-05-11T12:43:03.180Z,47.90
2019-05-11T12:45:33.598Z,48.00
2019-05-11T12:48:04.062Z,48.00
2019-05-11T12:50:34.998Z,47.90
2019-05-11T12:53:05.413Z,47.90
2019-05-11T12:55:37.982Z,48.00
2019-05-11T12:58:08.559Z,47.90
2019-05-11T13:00:39.399Z,47.90
2019-05-11T13:03:10.087Z,48.00
2019-05-11T13:05:40.500Z,47.90
2019-05-11T13:08:11.467Z,47.90
2019-05-11T13:10:41.878Z,47.90
2019-05-11T13:13:12.332Z,48.00
2019-05-11T13:15:42.757Z,48.00
2019-05-11T13:18:13.432Z,48.00
2019-05-11T13:20:44.143Z,47.90
2019-05-11T13:23:14.598Z,47.90
2019-05-11T13:25:45.369Z,47.90
2019-05-11T13:28:17.742Z,48.00
2019-05-11T13:30:48.824Z,47.90
2019-05-11T13:33:19.786Z,47.90
2019-05-11T13:35:50.506Z,47.90
2019-05-11T13:38:21.207Z,47.90
2019-05-11T13:40:51.584Z,47.90
2019-05-11T13:43:22.037Z,47.80
2019-05-11T13:45:52.711Z,47.90
2019-05-11T13:48:23.131Z,47.90
2019-05-11T13:50:53.727Z,47.80
2019-05-11T13:53:24.445Z,47.80
2019-05-11T13:55:55.225Z,47.90
2019-05-11T13:58:27.768Z,47.80
2019-05-11T14:00:58.524Z,47.80
2019-05-11T14:03:29.611Z,47.80
2019-05-11T14:06:00.472Z,47.80
2019-05-11T14:08:30.897Z,47.70
2019-05-11T14:11:01.846Z,47.90
2019-05-11T14:13:32.659Z,47.80
2019-05-11T14:16:03.170Z,47.80
2019-05-11T14:18:33.560Z,47.80
2019-05-11T14:21:04.499Z,47.80
2019-05-11T14:23:35.099Z,47.80
2019-05-11T14:26:07.923Z,47.80
2019-05-11T14:28:38.160Z,47.80
2019-05-11T14:31:08.986Z,47.80
2019-05-11T14:33:39.500Z,47.80
2019-05-11T14:36:10.306Z,47.80
2019-05-11T14:38:40.727Z,47.80
2019-05-11T14:41:11.374Z,47.80
2019-05-11T14:43:42.116Z,47.70
2019-05-11T14:46:12.883Z,47.80
2019-05-11T14:48:43.590Z,47.80
2019-05-11T14:51:14.435Z,47.80
2019-05-11T14:53:44.848Z,47.70
2019-05-11T14:56:15.263Z,47.70
2019-05-11T14:58:46.088Z,47.80
2019-05-11T15:01:18.366Z,48.40
2019-05-11T15:03:48.869Z,47.70
2019-05-11T15:06:19.706Z,47.70
2019-05-11T15:08:50.109Z,47.70
2019-05-11T15:11:20.496Z,47.70
2019-05-11T15:13:51.449Z,47.70
2019-05-11T15:16:22.224Z,47.70
2019-05-11T15:18:52.911Z,47.70
2019-05-11T15:21:23.382Z,47.80
2019-05-11T15:23:54.330Z,47.70
2019-05-11T15:26:27.763Z,47.70
2019-05-11T15:28:58.564Z,47.70
2019-05-11T15:31:29.489Z,47.60
2019-05-11T15:33:59.872Z,47.60
2019-05-11T15:36:30.304Z,47.70
2019-05-11T15:39:00.703Z,47.70
2019-05-11T15:41:31.496Z,47.60
2019-05-11T15:44:02.376Z,47.70
2019-05-11T15:46:32.803Z,47.70
2019-05-11T15:49:03.624Z,47.70
2019-05-11T15:51:34.279Z,47.70
2019-05-11T15:54:04.707Z,47.70
2019-05-11T15:56:35.455Z,47.70
2019-05-11T15:59:08.364Z,47.70
2019-05-11T16:01:41.055Z,47.70
2019-05-11T16:04:10.029Z,47.70
2019-05-11T16:06:40.465Z,47.70
2019-05-11T16:09:11.155Z,47.70
2019-05-11T16:11:41.738Z,47.70
2019-05-11T16:14:12.210Z,47.70
2019-05-11T16:16:43.105Z,47.70
2019-05-11T16:19:15.168Z,47.70
2019-05-11T16:21:45.890Z,47.70
2019-05-11T16:24:16.476Z,47.70
2019-05-11T16:26:47.518Z,47.70
2019-05-11T16:29:19.169Z,47.70
2019-05-11T16:31:49.798Z,47.70
2019-05-11T16:34:20.400Z,47.80
2019-05-11T16:36:50.876Z,47.80
2019-05-11T16:39:21.274Z,47.80
2019-05-11T16:41:51.725Z,47.80
2019-05-11T16:44:22.184Z,47.80
2019-05-11T16:46:52.848Z,47.80
2019-05-11T16:49:31.741Z,47.80
2019-05-11T16:51:55.495Z,47.80
2019-05-11T16:54:28.046Z,47.80
2019-05-11T16:56:58.119Z,47.80
2019-05-11T16:59:28.620Z,48.50
2019-05-11T17:01:59.051Z,47.80
2019-05-11T17:04:31.245Z,47.80
2019-05-11T17:07:02.339Z,47.90
2019-05-11T17:09:33.002Z,47.80
2019-05-11T17:12:03.389Z,47.90
2019-05-11T17:14:33.822Z,47.90
2019-05-11T17:17:04.231Z,47.90
2019-05-11T17:19:43.743Z,47.90
2019-05-11T17:22:08.341Z,47.90
2019-05-11T17:24:39.210Z,47.90
2019-05-11T17:27:09.673Z,47.90
2019-05-11T17:29:40.483Z,47.90
2019-05-11T17:32:10.891Z,47.80
2019-05-11T17:34:41.320Z,47.80
2019-05-11T17:37:12.203Z,47.80
2019-05-11T17:39:42.642Z,48.40
2019-05-11T17:42:13.069Z,47.70
2019-05-11T17:44:43.955Z,47.70
2019-05-11T17:47:14.351Z,47.80
2019-05-11T17:49:56.410Z,47.90
2019-05-11T17:52:18.690Z,47.90
2019-05-11T17:54:48.803Z,47.90
2019-05-11T17:57:19.229Z,48.00
2019-05-11T17:59:49.665Z,48.00
2019-05-11T18:02:20.091Z,48.10
2019-05-11T18:04:50.547Z,48.00
2019-05-11T18:07:27.539Z,48.20
2019-05-11T18:09:52.854Z,48.20
2019-05-11T18:12:23.239Z,48.20
2019-05-11T18:14:53.629Z,48.20
2019-05-11T18:17:24.079Z,48.40
2019-05-11T18:19:54.828Z,48.40
2019-05-11T18:22:28.332Z,48.40
2019-05-11T18:24:58.203Z,48.40
2019-05-11T18:27:29.005Z,48.50
2019-05-11T18:29:59.548Z,48.50
2019-05-11T18:32:30.301Z,48.50
2019-05-11T18:35:00.715Z,48.60
2019-05-11T18:37:31.309Z,48.70
2019-05-11T18:40:01.833Z,48.70
2019-05-11T18:42:32.235Z,48.70
2019-05-11T18:45:02.930Z,48.80
2019-05-11T18:47:33.336Z,48.80
2019-05-11T18:50:03.949Z,48.80
2019-05-11T18:52:34.356Z,48.80
2019-05-11T18:55:05.043Z,48.90
2019-05-11T18:57:35.437Z,48.90
2019-05-11T19:00:08.249Z,48.90
2019-05-11T19:02:38.817Z,48.80
2019-05-11T19:05:09.663Z,48.90
2019-05-11T19:07:40.444Z,48.80
2019-05-11T19:10:11.478Z,48.80
2019-05-11T19:12:41.936Z,48.90
2019-05-11T19:15:12.773Z,48.80
2019-05-11T19:17:43.780Z,48.80
2019-05-11T19:20:14.597Z,48.70
2019-05-11T19:22:45.019Z,48.90
2019-05-11T19:25:17.957Z,48.80
2019-05-11T19:27:50.186Z,48.70
2019-05-11T19:30:19.543Z,48.70
2019-05-11T19:32:50.516Z,48.70
2019-05-11T19:35:21.486Z,48.70
2019-05-11T19:37:52.128Z,48.70
2019-05-11T19:40:22.519Z,48.70
2019-05-11T19:42:59.448Z,48.70
2019-05-11T19:45:29.917Z,48.80
2019-05-11T19:48:00.337Z,48.80
2019-05-11T19:50:31.271Z,48.70
2019-05-11T19:53:01.675Z,48.70
2019-05-11T19:55:32.098Z,48.70
2019-05-11T19:58:02.551Z,48.70
2019-05-11T20:00:33.449Z,48.80
2019-05-11T20:03:04.048Z,48.80
2019-05-11T20:05:34.484Z,48.80
2019-05-11T20:08:07.726Z,48.90
2019-05-11T20:10:38.293Z,48.80
2019-05-11T20:13:09.260Z,48.80
2019-05-11T20:15:39.912Z,48.80
2019-05-11T20:18:10.366Z,48.80
2019-05-11T20:20:41.361Z,48.80
2019-05-11T20:23:11.750Z,48.90
2019-05-11T20:25:42.252Z,48.90
2019-05-11T20:28:12.687Z,48.90
2019-05-11T20:30:43.116Z,48.90
2019-05-11T20:33:13.525Z,49.00
2019-05-11T20:35:43.980Z,48.90
2019-05-11T20:38:14.408Z,49.00
2019-05-11T20:40:45.209Z,49.00
2019-05-11T20:43:15.651Z,49.10
2019-05-11T20:45:48.591Z,49.10
2019-05-11T20:48:19.377Z,49.20
2019-05-11T20:50:50.389Z,49.30
2019-05-11T20:53:21.171Z,49.20
2019-05-11T20:55:51.577Z,49.20
2019-05-11T20:58:22.031Z,49.30
2019-05-11T21:00:52.481Z,49.30
2019-05-11T21:03:22.857Z,49.30
2019-05-11T21:05:53.342Z,49.30
2019-05-11T21:08:23.941Z,49.40
2019-05-11T21:10:54.440Z,49.40
2019-05-11T21:13:24.874Z,49.30
2019-05-11T21:15:55.334Z,49.40
2019-05-11T21:18:25.711Z,49.40
2019-05-11T21:20:57.729Z,49.40
2019-05-11T21:23:28.982Z,49.40
2019-05-11T21:25:59.593Z,49.40
2019-05-11T21:28:30.682Z,49.40
2019-05-11T21:31:01.275Z,49.40
2019-05-11T21:33:31.690Z,49.40
2019-05-11T21:36:02.103Z,49.40
2019-05-11T21:38:32.515Z,49.40
2019-05-11T21:41:02.928Z,49.40
2019-05-11T21:43:33.347Z,49.40
2019-05-11T21:46:03.885Z,49.40
2019-05-11T21:48:34.299Z,49.40
2019-05-11T21:51:04.717Z,49.40
2019-05-11T21:53:37.994Z,49.50
2019-05-11T21:56:08.112Z,49.50
2019-05-11T21:58:38.740Z,49.50
2019-05-11T22:01:09.111Z,49.50
2019-05-11T22:03:39.543Z,49.50
2019-05-11T22:06:10.118Z,49.50
2019-05-11T22:08:40.963Z,49.50
2019-05-11T22:11:13.989Z,49.50
2019-05-11T22:13:43.288Z,49.50
2019-05-11T22:16:13.680Z,49.50
2019-05-11T22:18:44.103Z,49.50
2019-05-11T22:21:14.723Z,49.50
2019-05-11T22:23:47.445Z,49.60
2019-05-11T22:26:17.989Z,49.60
2019-05-11T22:28:48.497Z,49.60
2019-05-11T22:31:18.924Z,49.50
2019-05-11T22:33:49.338Z,49.60
2019-05-11T22:36:19.910Z,49.60
2019-05-11T22:38:50.415Z,49.60
2019-05-11T22:41:20.824Z,49.60
2019-05-11T22:43:51.606Z,49.60
2019-05-11T22:46:21.998Z,49.60
2019-05-11T22:48:52.488Z,49.70
2019-05-11T22:51:22.912Z,49.60
2019-05-11T22:53:54.648Z,49.60
2019-05-11T22:56:25.275Z,49.70
2019-05-11T22:58:55.804Z,49.60
2019-05-11T23:01:28.138Z,49.60
2019-05-11T23:03:58.486Z,49.70
2019-05-11T23:06:29.053Z,49.60
2019-05-11T23:08:59.457Z,49.60
2019-05-11T23:11:29.861Z,49.70
2019-05-11T23:14:00.319Z,49.70
2019-05-11T23:16:30.734Z,49.70
2019-05-11T23:19:01.232Z,49.70
2019-05-11T23:21:32.482Z,49.60
2019-05-11T23:24:03.225Z,49.60
2019-05-11T23:26:33.853Z,49.60
2019-05-11T23:29:04.297Z,49.60
2019-05-11T23:31:34.683Z,49.60
2019-05-11T23:34:05.522Z,49.50
2019-05-11T23:36:38.211Z,49.60
2019-05-11T23:39:09.351Z,49.60
2019-05-11T23:41:39.736Z,49.70
2019-05-11T23:44:10.270Z,49.60
2019-05-11T23:46:40.674Z,49.70
2019-05-11T23:49:11.443Z,49.70
2019-05-11T23:51:42.251Z,50.40
2019-05-11T23:54:12.638Z,49.70
2019-05-11T23:56:43.034Z,49.70
2019-05-11T23:59:13.508Z,49.70
